KDEN/DEN METAR and TAF weather

Enter ICAO airport designator
Station Type Date Time Source
KDEN METAR 2022/01/29 08:53 UTC NOAA

KDEN 290853Z 23010KT 10SM CLR M01/M14 A3021 RMK AO2 SLP234 T10111139 55005


Station Type Date Time Source
KDEN Decoded METAR 2022/01/29 08:53 UTC NOAA

DENVER INTERNATIONAL AIRPORT, CO, United States (KDEN) 39-52N 104-40W 1640M
Jan 29, 2022 - 03:53 AM EST / 2022.01.29 0853 UTC
Wind: from the SW (230 degrees) at 12 MPH (10 KT):0
Visibility: 10 mile(s):0
Sky conditions: clear
Temperature: 30.0 F (-1.1 C)
Windchill: 19 F (-7 C):1
Dew Point: 7.0 F (-13.9 C)
Relative Humidity: 37%
Pressure (altimeter): 30.21 in. Hg (1023 hPa)
Pressure tendency: 0.01 inches (0.5 hPa) lower than three hours ago
ob: KDEN 290853Z 23010KT 10SM CLR M01/M14 A3021 RMK AO2 SLP234 T10111139 55005
cycle: 9

Station Type Date Time Source
KDEN TAF 2022/01/29 09:04 UTC NOAA

TAF
AMD KDEN 290902Z 2909/3012 21013KT P6SM FEW250
FM291600 18007KT P6SM SKC
FM292000 VRB06KT P6SM SKC
FM292200 04007KT P6SM SKC
FM300200 12008KT P6SM FEW250
FM300400 20010KT P6SM FEW250

Example: see airport list